Terminal Aerodrome Forecast
Issued by NWS Billings, MT

Home | Current Version | Previous Version | Text Only | Print | Product List | Glossary On
Versions: 1 2 3 4 5 6 7 8 9 10 11 12 13
000
FTUS45 KBYZ 201739
TAFSHR
TAF
KSHR 201739Z 2018/2118 15016G24KT P6SM SKC
     FM202200 15015KT P6SM BKN150
     FM210300 24015G40KT P6SM BKN150
     FM211200 15014KT P6SM VCSH BKN100
     FM211500 23015KT P6SM VCSH BKN100=

USA.gov is the U.S. government's official web portal to all federal, state and local government web resources and services.